Stow on the Wold, United Kingdom
Current Conditions -  °F | °C
As of 8:50 PM on Saturday 20 Dec 2014 (Local Time) from EGVN Reporting Station
Broken Clouds Broken Clouds  
Wind Chill: 38°   Ceiling: 22000
Heat Index: 41°   Visibility: 6mi
Dew Point: 37°   Wind: 5mph
Humidity: 87%   Direction: 250°WSW
Pressure: 30.42"   Gusts: NA
Location:  51.93°N, 1.72°W
Report Text: EGVN 202050Z 25004KT 9999 FEW035 BKN220 05/03 Q1030 BLU NOSIG
Loading
Personal Weather Stations






























Interactive Weather Map New forecast layout! Learn more

10-Day Weather Forecast

Advertisements
Track Severe Weather on mobile